createdAt,value
2023-03-15T00:03:07.563Z,7.10
2023-03-15T00:08:09.604Z,10.50
2023-03-15T00:13:13.013Z,13.80
2023-03-15T00:18:15.886Z,14.73
2023-03-15T00:23:18.065Z,10.00
2023-03-15T00:28:20.773Z,13.83
2023-03-15T00:33:22.758Z,13.60
2023-03-15T00:38:24.612Z,13.90
2023-03-15T00:43:26.578Z,13.30
2023-03-15T00:48:28.822Z,13.50
2023-03-15T00:53:31.100Z,8.13
2023-03-15T00:58:33.049Z,14.60
2023-03-15T01:03:36.913Z,15.33
2023-03-15T01:08:39.674Z,11.73
2023-03-15T01:13:41.679Z,12.80
2023-03-15T01:18:44.007Z,10.30
2023-03-15T01:23:46.217Z,13.17
2023-03-15T01:28:48.342Z,8.20
2023-03-15T01:33:50.524Z,4.87
2023-03-15T01:38:54.878Z,3.63
2023-03-15T01:44:02.544Z,3.47
2023-03-15T01:49:22.833Z,2.43
2023-03-15T01:54:37.124Z,2.70
2023-03-15T01:59:43.472Z,2.10
2023-03-15T02:04:53.148Z,2.43
2023-03-15T02:10:03.621Z,3.90
2023-03-15T02:15:11.550Z,4.17
2023-03-15T02:20:13.604Z,6.33
2023-03-15T02:25:31.230Z,3.73
2023-03-15T02:30:34.062Z,5.70
2023-03-15T02:35:38.294Z,4.83
2023-03-15T02:40:40.897Z,8.53
2023-03-15T02:45:43.018Z,11.03
2023-03-15T02:50:45.207Z,6.97
2023-03-15T02:55:47.263Z,4.57
2023-03-15T03:00:49.244Z,6.50
2023-03-15T03:05:53.804Z,3.77
2023-03-15T03:10:56.082Z,2.70
2023-03-15T03:15:59.166Z,8.10
2023-03-15T03:21:07.661Z,5.87
2023-03-15T03:26:16.732Z,5.50
2023-03-15T03:31:25.236Z,4.83
2023-03-15T03:36:28.818Z,4.50
2023-03-15T03:41:30.953Z,7.47
2023-03-15T03:46:33.644Z,10.70
2023-03-15T03:51:36.344Z,7.60
2023-03-15T03:56:39.172Z,10.43
2023-03-15T04:01:42.305Z,12.00
2023-03-15T04:06:46.895Z,7.17
2023-03-15T04:11:53.367Z,10.07
2023-03-15T04:16:55.949Z,10.50
2023-03-15T04:21:58.332Z,13.07
2023-03-15T04:27:26.506Z,10.77
2023-03-15T04:32:37.478Z,11.57
2023-03-15T04:37:47.912Z,9.00
2023-03-15T04:43:13.110Z,7.67
2023-03-15T04:48:29.183Z,10.60
2023-03-15T04:54:03.724Z,9.30
2023-03-15T04:59:24.080Z,10.20
2023-03-15T05:04:43.622Z,7.73
2023-03-15T05:09:53.302Z,11.13
2023-03-15T05:15:13.996Z,10.23
2023-03-15T05:20:32.024Z,13.13
2023-03-15T05:26:06.201Z,8.73
2023-03-15T05:31:20.965Z,10.83
2023-03-15T05:36:44.625Z,12.40
2023-03-15T05:41:48.973Z,13.00
2023-03-15T05:47:20.590Z,15.37
2023-03-15T05:52:36.576Z,13.23
2023-03-15T05:57:55.722Z,12.57
2023-03-15T06:03:23.919Z,16.70
2023-03-15T06:08:36.535Z,12.67
2023-03-15T06:13:38.530Z,16.43
2023-03-15T06:18:48.411Z,10.87
2023-03-15T06:23:50.689Z,15.97
2023-03-15T06:28:53.841Z,16.20
2023-03-15T06:33:55.830Z,20.73
2023-03-15T06:38:57.876Z,20.53
2023-03-15T06:44:00.331Z,27.87
2023-03-15T06:49:03.327Z,26.47
2023-03-15T06:54:05.694Z,18.77
2023-03-15T06:59:10.280Z,16.90
2023-03-15T07:04:12.312Z,18.93
2023-03-15T07:09:14.314Z,24.87
2023-03-15T07:14:16.175Z,16.50
2023-03-15T07:19:17.968Z,14.93
2023-03-15T07:24:20.116Z,17.37
2023-03-15T07:29:23.550Z,13.33
2023-03-15T07:34:26.264Z,13.73
2023-03-15T07:39:29.109Z,11.23
2023-03-15T07:44:31.344Z,12.53
2023-03-15T07:49:34.565Z,10.53
2023-03-15T07:54:36.497Z,10.67
2023-03-15T07:59:38.396Z,15.87
2023-03-15T08:04:40.888Z,8.90
2023-03-15T08:09:44.023Z,9.67
2023-03-15T08:14:45.830Z,10.13
2023-03-15T08:19:47.961Z,6.27
2023-03-15T08:24:53.253Z,6.97
2023-03-15T08:29:55.140Z,7.17
2023-03-15T08:34:57.139Z,7.83
2023-03-15T08:40:04.814Z,9.20
2023-03-15T08:45:08.674Z,9.93
2023-03-15T08:50:15.485Z,10.13
2023-03-15T08:55:18.032Z,8.97
2023-03-15T09:00:22.609Z,8.07
2023-03-15T09:05:25.299Z,8.40
2023-03-15T09:10:27.479Z,5.70
2023-03-15T09:15:29.282Z,6.03
2023-03-15T09:20:31.930Z,2.50
2023-03-15T09:25:33.956Z,5.17
2023-03-15T09:30:38.271Z,4.33
2023-03-15T09:35:41.867Z,5.10
2023-03-15T09:40:47.507Z,5.53
2023-03-15T09:46:22.057Z,3.60
2023-03-15T09:51:42.077Z,5.50
2023-03-15T09:56:58.402Z,2.13
2023-03-15T10:02:13.282Z,4.93
2023-03-15T10:07:16.602Z,8.30
2023-03-15T10:12:26.331Z,3.23
2023-03-15T10:17:56.276Z,3.40
2023-03-15T10:23:18.695Z,2.13
2023-03-15T10:28:25.849Z,9.20
2023-03-15T10:33:34.382Z,3.53
2023-03-15T10:38:36.429Z,4.00
2023-03-15T10:43:39.909Z,5.90
2023-03-15T10:49:08.869Z,7.00
2023-03-15T10:54:22.067Z,2.33
2023-03-15T10:59:26.918Z,3.03
2023-03-15T11:04:32.493Z,4.57
2023-03-15T11:09:55.550Z,6.05
2023-03-15T11:15:00.265Z,3.63
2023-03-15T11:20:16.508Z,4.18
2023-03-15T11:25:18.549Z,5.07
2023-03-15T11:30:28.755Z,4.40
2023-03-15T11:35:41.188Z,3.45
2023-03-15T11:40:47.521Z,4.60
2023-03-15T11:45:58.897Z,4.85
2023-03-15T11:51:35.734Z,5.00
2023-03-15T11:56:43.789Z,4.38
2023-03-15T12:02:10.488Z,2.70
2023-03-15T12:07:18.802Z,5.10
2023-03-15T12:12:23.871Z,2.67
2023-03-15T12:17:28.885Z,4.77
2023-03-15T12:22:33.156Z,4.57
2023-03-15T12:27:37.674Z,4.20
2023-03-15T12:32:48.895Z,6.43
2023-03-15T12:37:53.213Z,2.47
2023-03-15T12:42:57.280Z,6.50
2023-03-15T12:47:59.620Z,4.88
2023-03-15T12:53:04.982Z,6.03
2023-03-15T12:58:11.756Z,6.15
2023-03-15T13:03:16.814Z,5.80
2023-03-15T13:08:30.884Z,4.50
2023-03-15T13:13:51.676Z,3.50
2023-03-15T13:19:15.813Z,3.20
2023-03-15T13:24:35.685Z,3.10
2023-03-15T13:29:37.942Z,3.63
2023-03-15T13:34:40.938Z,3.03
2023-03-15T13:39:53.989Z,5.97
2023-03-15T13:45:05.909Z,7.00
2023-03-15T13:50:08.882Z,4.93
2023-03-15T13:55:22.768Z,5.87
2023-03-15T14:00:26.895Z,6.37
2023-03-15T14:05:32.423Z,4.13
2023-03-15T14:10:36.943Z,1.80
2023-03-15T14:15:44.329Z,3.10
2023-03-15T14:21:08.197Z,2.87
2023-03-15T14:26:23.427Z,3.00
2023-03-15T14:31:32.330Z,2.33
2023-03-15T14:36:41.942Z,2.47
2023-03-15T14:41:44.136Z,3.97
2023-03-15T14:46:46.003Z,3.17
2023-03-15T14:51:53.926Z,5.43
2023-03-15T14:56:56.369Z,2.40
2023-03-15T15:02:00.076Z,2.53
2023-03-15T15:07:03.045Z,4.30
2023-03-15T15:12:05.502Z,2.93
2023-03-15T15:17:07.744Z,1.70
2023-03-15T15:22:11.080Z,1.87
2023-03-15T15:27:14.139Z,3.13
2023-03-15T15:32:16.260Z,0.70
2023-03-15T15:37:18.321Z,3.63
2023-03-15T15:42:20.491Z,3.00
2023-03-15T15:47:22.432Z,4.07
2023-03-15T15:52:24.480Z,3.07
2023-03-15T15:57:26.531Z,2.10
2023-03-15T16:02:28.720Z,1.67
2023-03-15T16:07:31.056Z,2.07
2023-03-15T16:12:34.388Z,5.03
2023-03-15T16:17:36.416Z,1.47
2023-03-15T16:22:40.840Z,2.23
2023-03-15T16:27:43.431Z,3.67
2023-03-15T16:32:45.330Z,2.67
2023-03-15T16:37:47.518Z,2.33
2023-03-15T16:42:50.576Z,1.73
2023-03-15T16:47:52.991Z,3.90
2023-03-15T16:52:57.540Z,1.17
2023-03-15T16:58:23.999Z,2.47
2023-03-15T17:03:27.649Z,3.93
2023-03-15T17:08:29.610Z,2.13
2023-03-15T17:13:32.773Z,4.20
2023-03-15T17:18:34.910Z,5.20
2023-03-15T17:23:36.736Z,5.70
2023-03-15T17:28:38.835Z,5.60
2023-03-15T17:33:41.335Z,2.90
2023-03-15T17:38:43.858Z,3.07
2023-03-15T17:43:46.410Z,4.20
2023-03-15T17:48:48.968Z,3.20
2023-03-15T17:53:51.930Z,2.50
2023-03-15T17:58:54.179Z,2.93
2023-03-15T18:03:57.029Z,3.53
2023-03-15T18:08:59.253Z,8.57
2023-03-15T18:14:01.639Z,7.10
2023-03-15T18:19:03.426Z,43.87
2023-03-15T18:24:05.595Z,7.43
2023-03-15T18:29:07.694Z,7.80
2023-03-15T18:34:15.633Z,6.63
2023-03-15T18:39:17.703Z,6.47
2023-03-15T18:44:19.787Z,4.90
2023-03-15T18:49:21.740Z,7.50
2023-03-15T18:54:24.778Z,11.53
2023-03-15T18:59:26.742Z,11.87
2023-03-15T19:04:28.544Z,12.73
2023-03-15T19:09:30.455Z,7.70
2023-03-15T19:14:32.478Z,4.37
2023-03-15T19:19:35.138Z,7.27
2023-03-15T19:24:37.383Z,5.07
2023-03-15T19:29:39.374Z,3.60
2023-03-15T19:34:41.405Z,6.63
2023-03-15T19:39:43.407Z,6.20
2023-03-15T19:44:47.394Z,5.87
2023-03-15T19:49:49.373Z,6.10
2023-03-15T19:54:51.787Z,7.00
2023-03-15T19:59:54.091Z,5.83
2023-03-15T20:04:56.319Z,5.63
2023-03-15T20:09:58.477Z,4.93
2023-03-15T20:15:01.392Z,5.20
2023-03-15T20:20:11.495Z,5.57
2023-03-15T20:25:15.507Z,8.87
2023-03-15T20:30:17.925Z,9.60
2023-03-15T20:35:20.153Z,9.00
2023-03-15T20:40:22.670Z,8.97
2023-03-15T20:45:25.146Z,12.37
2023-03-15T20:50:27.256Z,7.07
2023-03-15T20:55:29.304Z,7.07
2023-03-15T21:00:31.940Z,7.57
2023-03-15T21:05:34.105Z,9.43
2023-03-15T21:10:37.708Z,8.67
2023-03-15T21:15:47.398Z,8.17
2023-03-15T21:20:58.289Z,6.27
2023-03-15T21:26:03.746Z,6.37
2023-03-15T21:31:06.817Z,6.40
2023-03-15T21:36:20.856Z,6.23
2023-03-15T21:41:23.135Z,9.97
2023-03-15T21:46:25.074Z,7.40
2023-03-15T21:51:28.664Z,7.33
2023-03-15T21:56:31.671Z,7.73
2023-03-15T22:01:33.616Z,8.03
2023-03-15T22:06:35.714Z,7.43
2023-03-15T22:11:37.834Z,5.93
2023-03-15T22:16:39.924Z,7.77
2023-03-15T22:21:42.284Z,8.13
2023-03-15T22:26:47.598Z,8.17
2023-03-15T22:31:49.564Z,10.53
2023-03-15T22:36:52.757Z,8.70
2023-03-15T22:41:54.704Z,6.07
2023-03-15T22:46:56.678Z,6.43
2023-03-15T22:51:59.016Z,7.87
2023-03-15T22:57:01.531Z,7.23
2023-03-15T23:02:04.269Z,7.27
2023-03-15T23:07:06.098Z,5.03
2023-03-15T23:12:08.884Z,20.30
2023-03-15T23:17:11.763Z,8.07
2023-03-15T23:22:14.121Z,5.77
2023-03-15T23:27:15.911Z,5.80
2023-03-15T23:32:18.215Z,6.00
2023-03-15T23:37:20.850Z,6.20
2023-03-15T23:42:25.984Z,6.20
2023-03-15T23:47:28.131Z,7.07
2023-03-15T23:52:30.229Z,6.07
2023-03-15T23:57:32.527Z,5.47
